• Join FlightAware (Why Join?)
  • Login
  • US Flag 
01:21PM EDT


 

Airport Tracker/Info


-or-


 

Live Flight TrackerFlight Track Log ✈ SKW5653 ✈ 29-Apr-2012 ✈ KPSP - KDEN

Flight Track Log - Related Links

Times and Time Zones

All times are in EDT time to prevent confusion due to time zone crossing. See the SKW5653 flight status page for this flight to view local times or setup timezone preferences in your user account.

Time Position Orientation Groundspeed Altitude Reporting Facility
EDT Latitude Longitude Course Direction KTS MPH feet Rate Location/Type
08:58PM 33.8432 -116.4780 127° Southeast  Level FlightAware Approximate
08:59PM 33.8812 -116.3554 193° South  Level FlightAware Approximate
09:00PM 33.7833 -116.3833 81° East 246 283 4,100  Level Southern California TRACON
09:01PM 33.7975 -116.2811 30° Northeast 255 293 7,600 2,220 Climbing Los Angeles Center
09:02PM 33.8644 -116.2339 29° Northeast 256 295 9,600 2,040 Climbing Los Angeles Center
09:03PM 33.9353 -116.1864 28° Northeast 269 310 11,700 1,800 Climbing Los Angeles Center
09:04PM 34.0106 -116.1386 28° Northeast 283 326 13,300 1,500 Climbing Los Angeles Center
09:05PM 34.0897 -116.0886 29° Northeast 307 353 14,800 1,500 Climbing Los Angeles Center
09:06PM 34.1669 -116.0358 41° Northeast 307 353 16,300 1,380 Climbing Los Angeles Center
09:07PM 34.2378 -115.9603 56° Northeast 314 361 17,600 1,260 Climbing Los Angeles Center
09:08PM 34.2983 -115.8522 56° Northeast 346 398 18,900 1,200 Climbing Los Angeles Center
09:09PM 34.3564 -115.7464 60° Northeast 365 420 20,000 1,080 Climbing Los Angeles Center
09:10PM 34.4061 -115.6403 56° Northeast 370 426 21,100 960 Climbing Los Angeles Center
09:11PM 34.4642 -115.5342 56° Northeast 390 449 22,000 900 Climbing Los Angeles Center
09:12PM 34.5239 -115.4253 57° Northeast 395 455 22,900 900 Climbing Los Angeles Center
09:13PM 34.5900 -115.3036 59° Northeast 395 455 23,800 840 Climbing Los Angeles Center
09:14PM 34.6497 -115.1844 57° Northeast 395 455 24,600 720 Climbing Los Angeles Center
09:15PM 34.7072 -115.0778 58° Northeast 405 466 25,300 840 Climbing Los Angeles Center
09:16PM 34.7667 -114.9606 57° Northeast 410 472 26,300 780 Climbing Los Angeles Center
09:17PM 34.8303 -114.8408 58° Northeast 410 472 26,900 600 Climbing Los Angeles Center
09:18PM 34.8936 -114.7183 58° Northeast 415 478 27,500 600 Climbing Los Angeles Center
09:19PM 34.9569 -114.5956 58° Northeast 415 478 28,200 600 Climbing Los Angeles Center
09:20PM 35.0200 -114.4725 58° Northeast 420 483 28,700 600 Climbing Los Angeles Center
09:21PM 35.0828 -114.3494 58° Northeast 420 483 29,400 600 Climbing Los Angeles Center
09:22PM 35.1478 -114.2236 58° Northeast 431 496 30,000 600 Climbing Los Angeles Center
09:23PM 35.2106 -114.1003 58° Northeast 431 496 30,600 600 Climbing Los Angeles Center
09:24PM 35.2750 -113.9739 58° Northeast 431 496 31,200 600 Climbing Los Angeles Center
09:25PM 35.3436 -113.8397 58° Northeast 431 496 31,900 600 Climbing Los Angeles Center
09:26PM 35.4058 -113.7156 57° Northeast 431 496 32,500 540 Climbing Los Angeles Center
09:27PM 35.4703 -113.5914 59° Northeast 431 496 33,000 240 Climbing Los Angeles Center
09:28PM 35.5322 -113.4644 58° Northeast 431 496 33,000  Level Los Angeles Center
09:29PM 35.5961 -113.3397 57° Northeast 431 496 33,000  Level Los Angeles Center
09:30PM 35.6581 -113.2200 60° Northeast 444 511 33,000  Level Los Angeles Center
09:31PM 35.7233 -113.0794 58° Northeast 443 510 33,000  Level Los Angeles Center
09:32PM 35.7889 -112.9489 58° Northeast 438 504 33,000  Level Los Angeles Center
09:33PM 35.8544 -112.8183 60° Northeast 438 504 33,000  Level Los Angeles Center
09:34PM 35.9156 -112.6875 59° Northeast 438 504 33,000  Level Los Angeles Center
09:35PM 35.9725 -112.5722 58° Northeast 438 504 33,000  Level Los Angeles Center
09:36PM 36.0436 -112.4306 60° Northeast 438 504 33,000  Level Los Angeles Center
09:38PM 36.1419 -112.2203 59° Northeast 442 509 33,000  Level Denver Center
09:39PM 36.2067 -112.0861 59° Northeast 444 511 33,000  Level Denver Center
09:40PM 36.2697 -111.9542 59° Northeast 442 509 33,000  Level Denver Center
09:42PM 36.3978 -111.6850 60° Northeast 447 514 33,000  Level Denver Center
09:43PM 36.4614 -111.5503 59° Northeast 447 514 33,000  Level Denver Center
09:44PM 36.5253 -111.4156 60° Northeast 447 514 33,000  Level Denver Center
09:45PM 36.5997 -111.2536 60° Northeast 446 513 33,000  Level Denver Center
09:46PM 36.6639 -111.1172 60° Northeast 448 516 33,000  Level Denver Center
09:47PM 36.7272 -110.9797 59° Northeast 450 518 33,000  Level Denver Center
09:48PM 36.7919 -110.8431 60° Northeast 451 519 33,000  Level Denver Center
09:49PM 36.8550 -110.7058 60° Northeast 450 518 33,000  Level Denver Center
09:50PM 36.9186 -110.5686 60° Northeast 450 518 33,000  Level Denver Center
09:52PM 36.9819 -110.4314 60° Northeast 449 517 33,000  Level Denver Center
09:53PM 37.0564 -110.2675 60° Northeast 447 514 33,000  Level Denver Center
09:54PM 37.1156 -110.1383 61° Northeast 449 517 33,000  Level Denver Center
09:55PM 37.1842 -109.9858 60° Northeast 449 517 33,000  Level Denver Center
09:56PM 37.2428 -109.8558 61° Northeast 448 516 33,000  Level Denver Center
09:57PM 37.3117 -109.7022 61° Northeast 450 518 33,000  Level Denver Center
09:58PM 37.3703 -109.5692 61° Northeast 452 520 33,000  Level Denver Center
09:59PM 37.4389 -109.4158 61° Northeast 451 519 33,000  Level Denver Center
10:00PM 37.4967 -109.2847 61° Northeast 448 516 33,000  Level Denver Center
10:01PM 37.5642 -109.1306 61° Northeast 449 517 33,000  Level Denver Center
10:02PM 37.6214 -108.9981 61° Northeast 448 516 33,000  Level Denver Center
10:03PM 37.6894 -108.8447 62° Northeast 448 516 33,000  Level Denver Center
10:04PM 37.7467 -108.7103 61° Northeast 451 519 33,000  Level Denver Center
10:05PM 37.8133 -108.5561 61° Northeast 449 517 33,000  Level Denver Center
10:06PM 37.8694 -108.4264 62° Northeast 444 511 33,000  Level Denver Center
10:07PM 37.9356 -108.2717 61° Northeast 445 512 33,000  Level Denver Center
10:08PM 37.9922 -108.1400 62° Northeast 445 512 33,000  Level Denver Center
10:09PM 38.0575 -107.9853 62° Northeast 445 512 33,000  Level Denver Center
10:10PM 38.1111 -107.8583 62° Northeast 444 511 33,000  Level Denver Center
10:11PM 38.1764 -107.7036 62° Northeast 444 511 33,000  Level Denver Center
10:12PM 38.2317 -107.5719 62° Northeast 443 510 33,000  Level Denver Center
10:13PM 38.2956 -107.4178 62° Northeast 442 509 33,000  Level Denver Center
10:14PM 38.3506 -107.2864 62° Northeast 441 507 33,000  Level Denver Center
10:15PM 38.4139 -107.1331 59° Northeast 440 506 33,000  Level Denver Center
10:17PM 38.4739 -107.0042 51° Northeast 442 509 33,000  Level Denver Center
10:18PM 38.5597 -106.8686 53° Northeast 445 512 33,000 -180 Level Denver Center
10:19PM 38.6300 -106.7511 52° Northeast 438 504 32,700 -480 Descending Denver Center
10:20PM 38.7150 -106.6117 52° Northeast 443 510 32,000 -600 Descending Denver Center
10:21PM 38.7883 -106.4903 52° Northeast 448 516 31,500 -600 Descending Denver Center
10:22PM 38.8761 -106.3481 52° Northeast 454 522 30,800 -660 Descending Denver Center
10:23PM 38.9617 -106.2067 52° Northeast 451 519 30,200 -540 Descending Denver Center
10:24PM 39.0308 -106.0911 52° Northeast 456 525 29,800 -780 Descending Denver Center
10:25PM 39.1214 -105.9397 52° Northeast 455 524 28,600 -2,100 Descending Denver Center
10:26PM 39.2000 -105.8103 53° Northeast 454 522 25,500 -2,940 Descending Denver Center
10:27PM 39.2722 -105.6875 52° Northeast 436 502 22,500 -3,000 Descending Denver Center
10:28PM 39.3433 -105.5686 52° Northeast 414 476 19,400 -1,800 Descending Denver Center
10:29PM 39.4092 -105.4581 52° Northeast 390 449 18,800 -1,080 Descending Denver Center
10:30PM 39.4667 -105.3619 80° East 338 389 17,200 -1,560 Descending Denver Center
10:31PM 39.4825 -105.2389 86° East 359 413 15,600 -1,740 Descending Denver Center
10:32PM 39.4889 -105.1036 87° East 323 372 13,700 -1,260 Descending Denver Center
10:33PM 39.4931 -104.9881 83° East 320 368 13,000 -480 Descending Denver Center
10:34PM 39.5031 -104.8789 64° Northeast 308 354 12,800 -960 Descending Denver Center
10:35PM 39.5333 -104.8000 30° Northeast 302 348 11,300 -1,920 Descending Denver TRACON
10:36PM 39.6000 -104.7500 30° Northeast 300 345 9,500 -1,800 Descending Denver TRACON
10:37PM 39.6667 -104.7000 21° North 262 302 7,800 -1,260 Descending Denver TRACON
10:38PM 39.7333 -104.6667 21° North 225 259 7,000 -840 Descending Denver TRACON